»·PEaware :: N210AR KSNA-KCRQ

N210AR :: KSNA-KCRQ

FLIGHT INFORMATION

Flight Status: Arrived
Operator: Privately registered:
United States
More flights under this callsign
Pilot: Max S. (16657)
Aircraft: CESSNA 172 SKYHAWK
(C172)
More flights by this aircraft type
Origin: KSNA John Wayne-Orange Co
United States
Destination: KCRQ McClellan-Palomar
United States
More flights between these airports :: More routes between these airports
Route:
File this flight plan on PilotEdge
Remarks:
Altitude:
(Current/Filed)
3,500ft
Speed:
(Current/Filed)
100kts
Departed: 31-Aug-20 08:31 AM
Arrived: 31-Aug-20 09:00 AM
Distance/Time
Traveled:
44nm/0:29
Distance/Time
To Go:
Arrived

Flight Plot

Page will automatically refresh every two minutes.


Map Options




Map Legend


Flown Route
Filed Route
Departure Airport
Arrival Airport
Navaid (VOR, NDB)
Fix

Horizontal Profiles

Position Reports

Time Latitude Longitude Heading Altitude Ground
Speed
31-Aug-20 08:11 33.670769 -117.867922 207 60ft 0kts
31-Aug-20 08:12 33.670769 -117.867922 207 60ft 0kts
31-Aug-20 08:13 33.670769 -117.867922 207 60ft 0kts
31-Aug-20 08:14 33.670769 -117.867922 207 60ft 0kts
31-Aug-20 08:14 33.670769 -117.867922 207 60ft 0kts
31-Aug-20 08:16 33.670769 -117.867922 207 60ft 0kts
31-Aug-20 08:17 33.670769 -117.867922 207 60ft 0kts
31-Aug-20 08:18 33.670769 -117.867922 207 60ft 0kts
31-Aug-20 08:18 33.670769 -117.867922 207 60ft 0kts
31-Aug-20 08:20 33.670769 -117.867922 207 60ft 0kts
31-Aug-20 08:20 33.670769 -117.867922 207 60ft 0kts
31-Aug-20 08:21 33.670769 -117.867922 207 60ft 0kts
31-Aug-20 08:22 33.670769 -117.867922 207 60ft 0kts
31-Aug-20 08:23 33.670769 -117.867922 207 60ft 0kts
31-Aug-20 08:24 33.671446 -117.868584 19 60ft 6kts
31-Aug-20 08:25 33.673114 -117.867279 44 60ft 8kts
31-Aug-20 08:26 33.675770 -117.866032 27 60ft 16kts
31-Aug-20 08:27 33.679209 -117.863847 26 60ft 8kts
31-Aug-20 08:28 33.679935 -117.863583 308 60ft 0kts
31-Aug-20 08:29 33.679935 -117.863583 308 60ft 0kts
31-Aug-20 08:30 33.675334 -117.867194 208 185ft 71kts
31-Aug-20 08:31 33.655737 -117.863365 156 1250ft 77kts
31-Aug-20 08:32 33.634434 -117.854502 163 2163ft 95kts
31-Aug-20 08:33 33.604770 -117.843775 166 2108ft 119kts
31-Aug-20 08:34 33.574453 -117.831561 166 2194ft 114kts
31-Aug-20 08:35 33.549900 -117.813511 159 2846ft 108kts
31-Aug-20 08:36 33.521361 -117.802960 164 3559ft 108kts
31-Aug-20 08:37 33.489227 -117.793982 163 3558ft 121kts
31-Aug-20 08:38 33.457600 -117.781000 148 3553ft 120kts
31-Aug-20 08:39 33.429838 -117.758403 146 3559ft 120kts
31-Aug-20 08:40 33.401289 -117.737519 152 3564ft 120kts
31-Aug-20 08:41 33.373824 -117.714850 142 3571ft 120kts
31-Aug-20 08:42 33.347485 -117.690165 134 3577ft 120kts
31-Aug-20 08:43 33.323269 -117.662604 145 3582ft 120kts
31-Aug-20 08:44 33.295926 -117.639713 143 3588ft 120kts
31-Aug-20 08:45 33.267437 -117.618789 153 3601ft 120kts
31-Aug-20 08:46 33.235545 -117.606732 154 3595ft 121kts
31-Aug-20 08:47 33.215018 -117.575586 122 3596ft 120kts
31-Aug-20 08:48 33.197401 -117.541818 124 3617ft 120kts
31-Aug-20 08:49 33.176360 -117.510425 131 3596ft 121kts
31-Aug-20 08:50 33.156670 -117.477977 125 3589ft 121kts
31-Aug-20 08:51 33.145381 -117.440964 98 3590ft 120kts
31-Aug-20 08:52 33.139280 -117.401628 102 3599ft 120kts
31-Aug-20 08:53 33.131961 -117.363830 109 2408ft 116kts
31-Aug-20 08:54 33.125192 -117.330108 88 1473ft 89kts
31-Aug-20 08:55 33.130826 -117.305179 71 1391ft 72kts
31-Aug-20 08:56 33.138521 -117.282974 73 1387ft 72kts
31-Aug-20 08:57 33.144245 -117.260555 120 1404ft 59kts
31-Aug-20 08:58 33.130795 -117.264479 261 595ft 64kts
31-Aug-20 08:59 33.128040 -117.279303 226 318ft 19kts
31-Aug-20 09:00 33.127345 -117.280606 259 319ft 8kts
31-Aug-20 09:01 33.126864 -117.281301 83 321ft 0kts
31-Aug-20 09:02 33.126864 -117.281301 83 321ft 0kts

Navigation Log

Ident Type
Flight plan parsing failed, navigation log unavailable